LHBPLIBR [BTO5488]

Guest
Details From LHBP - Budapest Ferihegy
To LIBR - Casale
Flight Number BTO5488
Tags Real Commercial Decoded
Created
Modified
Stats Distance 412 nm / 763 km
Max Altitude 0 ft / 0 m
Waypoints 2
Social Downloads 7
Likes 0
Share VATSIM

Download

Looking for another format? Having issues loading an existing format? Contact us
Advertisement - Login to hide

Notes

Decoded

Route

LHBP LIBR

ID Type Via Altitude Latitude Longitude Leg Dist Tot Dist Heading (true) Name
O LHBP APT - 0 ft / 0 m 47.44871˚ 19.22076˚ - 0 nm - -
O LIBR APT - 0 ft / 0 m 40.65233˚ 17.93679˚ 411 nm 411 nm 188° / 187° -

Altitude Profile

Advertisement - Login to hide

Weather


0- 5 10 15 20 25 30 35+ Temperature / ° C

Clouds and Precipitation
Forecast for 2018-05-24 12:00 UTC. Updated 35 minutes ago

Ground ~20,000 ft ~40,000 ft Winds

LHBP

Details ICAO LHBP (BUD)
Name Ferihegy (Budapest)
Region Hungary
Timezone Europe/Budapest (UTC+2.0)
Stats Elevation 495 ft / 151 m (AMSL)
Location 47.435292° 19.265792°
Runways 3
Magnetic Variation 4.815° E

METAR

LHBP 241130Z 04006KT 340V120 CAVOK 27/14 Q1017 NOSIG

Decode

TAF

TAF LHBP 241115Z 2412/2512 05006KT CAVOK TEMPO 2412/2422 VRB15G25KT 4500 TSRA SCT040CB BKN060 BECMG 2505/2507 04009KT PROB30 TEMPO 2505/2512 4000 SHRA SCT035TCU BKN080

Decode

Departure Runways

ID Width Length Bearing (true) Bearing (mag) Surface Threshold Offset Overrun Length
13 250 ft / 76 m 6,000 ft / 1,829 m 132.54° 127.73° Unknown 0 ft / 0 m 0 ft / 0 m
13L 196 ft / 60 m 12,487 ft / 3,806 m 132.54° 127.73° Asphalt 0 ft / 0 m 200 ft / 61 m
13R 196 ft / 60 m 10,145 ft / 3,092 m 132.49° 127.68° Asphalt 0 ft / 0 m 197 ft / 60 m
31 250 ft / 76 m 6,000 ft / 1,829 m 312.55° 307.74° Unknown 0 ft / 0 m 0 ft / 0 m
31L 196 ft / 60 m 10,145 ft / 3,092 m 312.51° 307.70° Asphalt 0 ft / 0 m 197 ft / 60 m
31R 196 ft / 60 m 12,487 ft / 3,806 m 312.56° 307.75° Asphalt 0 ft / 0 m 197 ft / 60 m

LIBR

Details ICAO LIBR (BDS)
Name BRINDISI/Casale
Region Italy
Timezone Europe/Rome (UTC+2.0)
Stats Elevation 47 ft / 14 m (AMSL)
Location 40.660824° 17.942673°
Runways 2
Magnetic Variation 3.935° E

METAR

LIBR 241120Z 36009KT 9999 FEW020 22/17 Q1015

Decode

TAF

TAF LIBR 241100Z 2412/2512 36012KT 9999 SCT040 TEMPO 2412/2414 RA

Decode

Destination Runways

ID Width Length Bearing (true) Bearing (mag) Surface Threshold Offset Overrun Length
13 148 ft / 45 m 9,398 ft / 2,865 m 136.56° 132.63° Asphalt 0 ft / 0 m 689 ft / 210 m
23 148 ft / 45 m 6,129 ft / 1,868 m 232.52° 228.59° Asphalt 230 ft / 70 m 0 ft / 0 m
31 148 ft / 45 m 9,398 ft / 2,865 m 316.58° 312.65° Asphalt 0 ft / 0 m 387 ft / 118 m
5 148 ft / 45 m 6,129 ft / 1,868 m 52.51° 48.58° Asphalt 0 ft / 0 m 0 ft / 0 m

Approach Navaids

Runway Type Ident Frequency Range Bearing (true) Bearing (mag) Slope Elevation
31 Localiser IBN 109.50 MHz 18 nm / 33 km 316.88° 312.95° - 48 ft / 15 m (AMSL)
31 Glidescope IBN 109.50 MHz 10 nm / 19 km 316.57° 312.64° 2.50° 94 ft / 29 m (AMSL)

Popular Alternatives